Time;durP1;ratioP1;P1;durP2;ratioP2;P2;SDS_P1;SDS_P2;PMS_P1;PMS_P2;Temp;Humidity;BMP_temperature;BMP_pressure;BME280_temperature;BME280_humidity;BME280_pressure;Samples;Min_cycle;Max_cycle;Signal;HPM_P1;HPM_P2
2022/04/23 00:00:17;;;;;;;16.12;12.73;;;;;;;6.23;86.76;95655.79;1632891;87;21024;-82
2022/04/23 00:02:45;;;;;;;16.87;13.50;;;;;;;6.25;86.74;95647.88;1644840;87;21509;-82
2022/04/23 00:05:11;;;;;;;15.32;12.30;;;;;;;6.23;86.60;95647.25;1645034;87;21063;-82
2022/04/23 00:07:36;;;;;;;18.67;14.10;;;;;;;6.21;86.96;95647.42;1644677;87;21002;-82
2022/04/23 00:10:02;;;;;;;17.70;13.65;;;;;;;6.19;86.81;95644.70;1644545;87;21031;-82
2022/04/23 00:12:30;;;;;;;18.67;14.23;;;;;;;6.16;86.83;95643.25;1644710;87;21026;-82
2022/04/23 00:14:56;;;;;;;13.43;11.28;;;;;;;6.18;86.86;95636.16;1644162;87;21009;-82
2022/04/23 00:17:21;;;;;;;18.80;14.65;;;;;;;6.15;87.26;95636.48;1644879;87;21019;-82
2022/04/23 00:19:48;;;;;;;19.32;14.55;;;;;;;6.10;86.97;95628.95;1644268;87;20999;-82
2022/04/23 00:22:17;;;;;;;17.62;13.95;;;;;;;6.12;87.29;95632.16;1642312;87;20971;-82
2022/04/23 00:24:44;;;;;;;19.32;14.58;;;;;;;6.07;87.39;95635.27;1644845;87;20975;-82
2022/04/23 00:27:10;;;;;;;19.40;15.68;;;;;;;6.02;87.38;95631.12;1644982;87;21433;-82
2022/04/23 00:29:36;;;;;;;19.35;15.05;;;;;;;6.03;87.36;95630.14;1644864;87;21071;-82
2022/04/23 00:32:03;;;;;;;15.80;13.18;;;;;;;6.08;87.54;95629.62;1644753;87;21030;-82
2022/04/23 00:34:29;;;;;;;15.30;12.75;;;;;;;6.09;87.36;95626.87;1642608;87;21117;-82
2022/04/23 00:36:54;;;;;;;17.37;14.05;;;;;;;6.05;87.61;95628.19;1642302;87;21021;-82
2022/04/23 00:39:20;;;;;;;19.67;15.65;;;;;;;6.01;87.60;95632.06;1644662;87;21051;-82
2022/04/23 00:41:46;;;;;;;19.73;14.25;;;;;;;5.96;88.05;95630.49;1634005;87;21020;-82
2022/04/23 00:44:14;;;;;;;17.55;14.13;;;;;;;5.93;87.98;95629.06;1644625;87;20956;-82
2022/04/23 00:46:40;;;;;;;19.45;14.80;;;;;;;5.93;88.15;95632.13;1644844;86;21061;-82
2022/04/23 00:49:06;;;;;;;19.90;16.57;;;;;;;5.90;87.90;95628.13;1644274;87;20971;-82
2022/04/23 00:51:32;;;;;;;19.92;15.93;;;;;;;5.93;88.11;95628.27;1646053;87;21003;-82
2022/04/23 00:54:01;;;;;;;21.00;16.25;;;;;;;5.97;87.99;95623.88;1633189;87;21391;-82
2022/04/23 00:56:27;;;;;;;21.20;16.02;;;;;;;6.05;87.96;95622.23;1618448;89;21401;-82
2022/04/23 00:58:54;;;;;;;18.55;14.38;;;;;;;6.08;88.00;95614.14;1636659;87;21106;-82
2022/04/23 01:01:23;;;;;;;20.57;15.72;;;;;;;6.07;88.07;95613.34;1653795;87;21436;-81
2022/04/23 01:03:48;;;;;;;20.02;14.73;;;;;;;6.03;87.97;95619.03;1654143;86;21492;-82
2022/04/23 01:06:14;;;;;;;19.52;15.65;;;;;;;6.00;88.12;95622.73;1654311;87;21029;-82
2022/04/23 01:08:40;;;;;;;19.95;16.67;;;;;;;5.95;88.07;95625.02;1654475;87;21113;-82
2022/04/23 01:11:06;;;;;;;23.00;17.30;;;;;;;5.96;88.09;95622.27;1654428;87;21078;-82
2022/04/23 01:13:32;;;;;;;23.02;16.80;;;;;;;5.96;88.00;95620.18;1654301;87;21480;-82
2022/04/23 01:16:07;;;;;;;24.05;17.98;;;;;;;5.94;88.19;95618.27;1652776;87;21015;-82
2022/04/23 01:18:34;;;;;;;21.80;16.97;;;;;;;5.93;88.20;95623.91;1647329;86;21067;-82
2022/04/23 01:21:04;;;;;;;22.42;17.77;;;;;;;5.92;88.29;95620.22;1654276;87;21118;-82
2022/04/23 01:23:30;;;;;;;21.97;17.55;;;;;;;5.87;88.48;95613.46;1653995;87;21386;-82
2022/04/23 01:25:58;;;;;;;22.42;17.27;;;;;;;5.83;88.26;95624.58;1654504;87;21058;-81
2022/04/23 01:28:25;;;;;;;21.10;16.17;;;;;;;5.84;88.29;95619.73;1654678;87;21431;-82
2022/04/23 01:30:52;;;;;;;20.55;16.57;;;;;;;5.84;88.17;95615.06;1651364;87;20983;-81
2022/04/23 01:33:18;;;;;;;21.23;17.30;;;;;;;5.83;88.34;95610.88;1654322;87;21081;-81
2022/04/23 01:35:44;;;;;;;19.85;16.12;;;;;;;5.80;88.10;95618.48;1646803;87;21048;-81
2022/04/23 01:38:11;;;;;;;20.30;16.30;;;;;;;5.82;88.36;95620.39;1648887;87;21341;-81
2022/04/23 01:40:37;;;;;;;23.77;18.25;;;;;;;5.82;88.24;95622.17;1654601;87;21018;-81
2022/04/23 01:43:04;;;;;;;23.40;18.05;;;;;;;5.82;88.14;95621.69;1654657;87;21046;-81
2022/04/23 01:45:30;;;;;;;21.37;17.05;;;;;;;5.81;88.32;95627.81;1654822;87;21054;-81
2022/04/23 01:47:56;;;;;;;20.77;18.37;;;;;;;5.76;88.16;95615.12;1654455;85;21469;-81
2022/04/23 01:50:22;;;;;;;22.70;18.45;;;;;;;5.69;88.06;95625.30;1654294;87;21105;-81
2022/04/23 01:52:47;;;;;;;23.25;18.10;;;;;;;5.66;88.22;95626.93;1653654;87;21065;-81
2022/04/23 01:55:13;;;;;;;22.45;17.52;;;;;;;5.65;88.26;95626.62;1654572;87;21006;-81
2022/04/23 01:57:39;;;;;;;18.50;14.98;;;;;;;5.66;88.19;95625.64;1653795;87;22050;-81
2022/04/23 02:00:08;;;;;;;22.32;18.10;;;;;;;5.68;88.69;95631.42;1628258;87;21023;-81
2022/04/23 02:02:36;;;;;;;26.42;18.75;;;;;;;5.67;88.39;95629.34;1640235;87;21004;-82
2022/04/23 02:05:03;;;;;;;22.90;19.25;;;;;;;5.66;88.13;95626.44;1643353;87;21437;-81
2022/04/23 02:07:29;;;;;;;24.82;19.35;;;;;;;5.72;88.24;95624.98;1642544;87;21426;-81
2022/04/23 02:09:54;;;;;;;25.88;20.32;;;;;;;5.81;88.53;95623.14;1644235;87;20998;-81
2022/04/23 02:12:20;;;;;;;27.98;20.70;;;;;;;5.80;88.02;95623.63;1642652;87;20998;-81
2022/04/23 02:14:47;;;;;;;25.17;20.43;;;;;;;5.78;88.05;95625.58;1643505;87;21015;-81
2022/04/23 02:17:14;;;;;;;25.82;20.55;;;;;;;5.81;88.08;95624.44;1643694;87;21015;-81
2022/04/23 02:19:40;;;;;;;26.25;20.05;;;;;;;5.82;87.97;95627.33;1644702;87;21429;-81
2022/04/23 02:22:06;;;;;;;24.82;20.12;;;;;;;5.78;87.58;95629.45;1644828;87;21070;-81
2022/04/23 02:24:32;;;;;;;23.80;18.98;;;;;;;5.77;87.61;95633.00;1644603;87;21032;-78
2022/04/23 02:26:57;;;;;;;26.25;20.43;;;;;;;5.77;87.53;95634.29;1645890;87;21393;-79
2022/04/23 02:29:23;;;;;;;23.95;19.77;;;;;;;5.70;87.57;95643.69;1644615;87;21042;-79
2022/04/23 02:31:49;;;;;;;20.68;17.98;;;;;;;5.70;87.76;95647.06;1644560;87;21015;-79
2022/04/23 02:34:15;;;;;;;23.38;19.55;;;;;;;5.68;87.96;95643.83;1643441;87;21058;-79
2022/04/23 02:36:40;;;;;;;23.20;19.55;;;;;;;5.67;87.72;95646.58;1644540;87;20963;-79
2022/04/23 02:39:06;;;;;;;24.00;19.65;;;;;;;5.67;87.94;95645.28;1644804;87;21156;-79
2022/04/23 02:41:32;;;;;;;26.20;20.77;;;;;;;5.69;87.94;95643.34;1640704;87;21003;-79
2022/04/23 02:43:57;;;;;;;25.08;20.30;;;;;;;5.70;87.90;95651.42;1642157;87;22234;-78
2022/04/23 02:46:24;;;;;;;26.48;20.65;;;;;;;5.75;88.13;95647.03;1642793;86;20986;-79
2022/04/23 02:48:50;;;;;;;25.68;20.52;;;;;;;5.74;87.78;95659.13;1643779;87;20967;-79
2022/04/23 02:51:16;;;;;;;26.42;21.15;;;;;;;5.74;87.89;95653.97;1643158;87;21357;-79
2022/04/23 02:53:43;;;;;;;23.07;17.95;;;;;;;5.72;87.94;95655.43;1642245;87;21063;-79
2022/04/23 02:56:13;;;;;;;27.73;21.87;;;;;;;5.70;87.76;95661.24;1645125;87;21006;-79
2022/04/23 02:58:37;;;;;;;25.05;20.50;;;;;;;5.62;87.59;95661.75;1645664;86;21510;-78
2022/04/23 03:01:03;;;;;;;25.08;19.87;;;;;;;5.66;87.74;95661.73;1648086;87;21018;-79
2022/04/23 03:03:29;;;;;;;24.10;20.05;;;;;;;5.73;87.91;95671.70;1654503;87;21133;-78
2022/04/23 03:05:55;;;;;;;29.07;24.05;;;;;;;5.71;87.58;95665.42;1642875;87;20958;-79
2022/04/23 03:08:23;;;;;;;31.73;24.70;;;;;;;5.69;87.67;95669.95;1654444;87;21021;-79
2022/04/23 03:10:49;;;;;;;31.65;25.65;;;;;;;5.69;87.69;95670.41;1651605;86;21043;-79
2022/04/23 03:13:15;;;;;;;32.60;26.30;;;;;;;5.65;87.51;95673.81;1653975;87;21017;-80
2022/04/23 03:15:44;;;;;;;34.88;25.88;;;;;;;5.65;87.61;95669.14;1654614;87;21026;-79
2022/04/23 03:18:13;;;;;;;35.60;25.40;;;;;;;5.63;87.31;95669.80;1649655;87;21113;-78
2022/04/23 03:20:41;;;;;;;29.10;21.85;;;;;;;5.61;87.42;95673.03;1649965;87;20995;-78
2022/04/23 03:23:07;;;;;;;34.43;26.93;;;;;;;5.62;87.49;95667.71;1650047;87;20967;-79
2022/04/23 03:25:33;;;;;;;35.03;26.00;;;;;;;5.60;87.25;95673.52;1649555;87;21027;-79
2022/04/23 03:28:00;;;;;;;31.42;25.57;;;;;;;5.63;87.46;95671.09;1637463;87;21101;-79
2022/04/23 03:30:28;;;;;;;33.18;25.35;;;;;;;5.56;87.19;95668.88;1649347;87;21117;-79
2022/04/23 03:32:54;;;;;;;30.00;25.10;;;;;;;5.56;87.52;95666.30;1648482;87;21357;-79
2022/04/23 03:35:20;;;;;;;29.95;25.37;;;;;;;5.56;87.20;95667.59;1647030;87;21022;-79
2022/04/23 03:37:47;;;;;;;31.97;25.82;;;;;;;5.54;87.25;95680.64;1649990;87;21034;-79
2022/04/23 03:40:13;;;;;;;32.42;26.20;;;;;;;5.54;87.30;95679.36;1650059;87;21014;-79
2022/04/23 03:42:39;;;;;;;34.13;25.85;;;;;;;5.56;87.28;95680.48;1645479;87;21334;-78
2022/04/23 03:45:06;;;;;;;32.55;25.60;;;;;;;5.48;87.12;95679.20;1649661;87;21076;-78
2022/04/23 03:47:32;;;;;;;32.50;24.43;;;;;;;5.49;87.46;95688.54;1646581;85;21053;-79
2022/04/23 03:50:04;;;;;;;28.57;23.75;;;;;;;5.51;87.22;95689.97;1649741;87;21323;-78
2022/04/23 03:52:30;;;;;;;29.92;23.65;;;;;;;5.54;87.26;95690.16;1635628;87;21034;-79
2022/04/23 03:54:56;;;;;;;28.50;21.93;;;;;;;5.56;87.33;95690.78;1640600;87;21034;-79
2022/04/23 03:57:22;;;;;;;28.15;21.75;;;;;;;5.56;87.13;95696.73;1633135;87;21360;-79
2022/04/23 03:59:47;;;;;;;29.27;22.55;;;;;;;5.51;87.08;95703.34;1649703;87;21039;-79
2022/04/23 04:02:13;;;;;;;23.07;19.02;;;;;;;5.45;87.12;95702.73;1649991;87;21302;-79
2022/04/23 04:04:41;;;;;;;29.87;24.02;;;;;;;5.39;87.58;95704.21;1650075;87;21370;-79
2022/04/23 04:07:07;;;;;;;29.35;22.55;;;;;;;5.38;87.50;95709.05;1650138;87;21042;-79
2022/04/23 04:09:32;;;;;;;26.55;21.40;;;;;;;5.42;87.58;95705.16;1639179;87;20962;-79
2022/04/23 04:12:01;;;;;;;26.15;20.82;;;;;;;5.48;87.61;95704.97;1627232;87;21018;-79
2022/04/23 04:14:33;;;;;;;27.22;21.57;;;;;;;5.51;87.27;95707.21;1606453;88;20957;-79
2022/04/23 04:16:59;;;;;;;23.83;20.17;;;;;;;5.52;87.31;95704.46;1603972;88;21379;-79
2022/04/23 04:19:27;;;;;;;26.82;21.37;;;;;;;5.59;87.51;95705.91;1604907;88;20989;-78
2022/04/23 04:21:52;;;;;;;24.60;20.55;;;;;;;5.61;87.18;95711.69;1653042;87;21043;-79
2022/04/23 04:24:18;;;;;;;23.22;18.62;;;;;;;5.59;87.04;95709.28;1649710;87;20963;-79
2022/04/23 04:26:45;;;;;;;26.12;21.73;;;;;;;5.52;86.95;95707.04;1654268;87;21030;-78
2022/04/23 04:29:11;;;;;;;28.12;22.15;;;;;;;5.42;86.72;95705.16;1654437;87;20987;-78
2022/04/23 04:31:49;;;;;;;26.00;21.25;;;;;;;5.41;86.95;95706.94;1641122;87;21029;-79
2022/04/23 04:34:28;;;;;;;24.92;21.80;;;;;;;5.48;87.12;95708.83;1629685;87;21456;-79
2022/04/23 04:37:08;;;;;;;26.90;21.52;;;;;;;5.58;87.12;95710.74;1623304;87;21463;-79
2022/04/23 04:39:40;;;;;;;30.17;23.92;;;;;;;5.62;86.81;95714.59;1642357;87;21416;-79
2022/04/23 04:42:07;;;;;;;25.88;22.48;;;;;;;5.63;86.72;95718.77;1636440;86;21013;-79
2022/04/23 04:44:33;;;;;;;29.18;23.57;;;;;;;5.63;86.91;95718.28;1642521;87;20974;-80
2022/04/23 04:46:58;;;;;;;30.52;23.57;;;;;;;5.67;86.95;95722.12;1648928;85;21070;-79
2022/04/23 04:49:25;;;;;;;28.47;22.77;;;;;;;5.73;86.83;95720.67;1649255;87;21062;-78
2022/04/23 04:51:52;;;;;;;26.42;21.35;;;;;;;5.77;86.56;95727.09;1650051;87;21149;-79
2022/04/23 04:54:18;;;;;;;23.98;20.05;;;;;;;5.83;86.31;95726.41;1645088;87;21070;-79
2022/04/23 04:56:45;;;;;;;22.87;20.00;;;;;;;5.85;86.31;95725.75;1626003;87;21078;-80
2022/04/23 04:59:10;;;;;;;20.05;17.17;;;;;;;5.90;86.36;95729.97;1630729;87;21023;-79
2022/04/23 05:01:36;;;;;;;19.57;16.23;;;;;;;5.91;85.80;95726.42;1619789;87;21020;-80
2022/04/23 05:04:02;;;;;;;21.65;17.92;;;;;;;5.87;85.72;95728.19;1615826;87;21114;-79
2022/04/23 05:06:29;;;;;;;18.23;15.45;;;;;;;5.79;85.51;95725.14;1613566;87;21086;-79
2022/04/23 05:08:55;;;;;;;22.02;18.02;;;;;;;5.80;85.47;95731.91;1616508;87;21078;-79
2022/04/23 05:11:21;;;;;;;23.52;18.37;;;;;;;5.83;85.81;95725.61;1615972;87;21022;-79
2022/04/23 05:13:47;;;;;;;23.12;18.00;;;;;;;5.84;85.39;95732.37;1621642;87;21007;-79
2022/04/23 05:16:12;;;;;;;23.05;18.17;;;;;;;5.83;85.45;95733.34;1616676;87;21481;-80
2022/04/23 05:18:38;;;;;;;22.48;19.98;;;;;;;5.82;85.35;95733.83;1619451;87;21020;-79
2022/04/23 05:21:04;;;;;;;24.00;19.35;;;;;;;5.74;85.24;95732.59;1616042;87;21086;-79
2022/04/23 05:23:29;;;;;;;21.95;18.20;;;;;;;5.71;85.41;95728.58;1614902;87;21345;-79
2022/04/23 05:25:55;;;;;;;22.27;17.17;;;;;;;5.77;85.54;95732.73;1615908;87;21004;-79
2022/04/23 05:28:21;;;;;;;27.85;20.43;;;;;;;5.83;85.46;95735.44;1597684;87;20967;-79
2022/04/23 05:30:47;;;;;;;26.15;21.25;;;;;;;5.85;85.22;95740.42;1620733;87;21086;-79
2022/04/23 05:33:13;;;;;;;25.77;22.30;;;;;;;5.87;85.29;95738.02;1620295;87;21039;-79
2022/04/23 05:35:39;;;;;;;34.15;24.00;;;;;;;5.93;85.37;95739.14;1620861;87;21817;-79
2022/04/23 05:38:05;;;;;;;29.50;21.15;;;;;;;5.92;85.07;95732.37;1619070;87;21021;-79
2022/04/23 05:40:31;;;;;;;29.30;22.70;;;;;;;5.87;85.19;95734.64;1628680;87;20994;-79
2022/04/23 05:43:00;;;;;;;26.87;20.35;;;;;;;5.87;85.34;95745.75;1617774;87;21109;-79
2022/04/23 05:45:26;;;;;;;21.95;18.10;;;;;;;5.86;85.09;95743.34;1628116;87;21099;-79
2022/04/23 05:47:53;;;;;;;25.80;21.25;;;;;;;5.87;85.25;95746.23;1617213;87;21051;-79
2022/04/23 05:50:18;;;;;;;27.82;21.35;;;;;;;5.92;85.50;95744.78;1615610;87;21122;-79
2022/04/23 05:52:44;;;;;;;25.55;20.60;;;;;;;6.07;85.81;95736.34;1614489;87;20987;-80
2022/04/23 05:55:10;;;;;;;26.23;20.97;;;;;;;6.11;85.31;95744.05;1633464;87;20970;-79
2022/04/23 05:57:36;;;;;;;22.37;19.45;;;;;;;6.16;85.33;95748.20;1591572;90;21038;-79
2022/04/23 06:00:06;;;;;;;22.25;19.12;;;;;;;6.25;85.41;95745.91;1602372;89;21159;-79
2022/04/23 06:02:32;;;;;;;18.50;15.30;;;;;;;6.35;85.03;95749.58;1601960;89;21115;-79
2022/04/23 06:04:58;;;;;;;18.98;15.70;;;;;;;6.36;83.84;95748.59;1649678;85;21149;-78
2022/04/23 06:07:26;;;;;;;16.07;13.22;;;;;;;6.45;84.49;95743.69;1647355;87;21109;-79
2022/04/23 06:09:52;;;;;;;17.42;13.83;;;;;;;6.60;83.99;95741.97;1650860;85;21006;-78
2022/04/23 06:12:17;;;;;;;15.60;13.62;;;;;;;6.74;84.10;95748.16;1665087;85;21066;-78
2022/04/23 06:14:46;;;;;;;16.30;14.63;;;;;;;6.87;83.65;95746.61;1653421;85;21125;-78
2022/04/23 06:17:12;;;;;;;15.55;12.93;;;;;;;6.97;83.44;95749.42;1656850;85;21476;-78
2022/04/23 06:19:39;;;;;;;16.95;13.75;;;;;;;7.04;83.00;95749.86;1646450;85;21064;-78
2022/04/23 06:22:05;;;;;;;16.25;13.28;;;;;;;7.17;82.61;95745.39;1644596;87;21005;-78
2022/04/23 06:24:31;;;;;;;17.20;13.28;;;;;;;7.26;82.83;95749.98;1649463;87;21489;-78
2022/04/23 06:26:57;;;;;;;8.20;7.30;;;;;;;7.46;82.84;95751.06;1649600;85;21074;-78
2022/04/23 06:29:23;;;;;;;7.95;6.03;;;;;;;7.63;81.62;95755.08;1650053;85;21097;-78
2022/04/23 06:31:49;;;;;;;8.10;6.97;;;;;;;7.76;80.64;95753.97;1648545;85;21417;-78
2022/04/23 06:34:15;;;;;;;12.75;11.05;;;;;;;7.80;79.67;95758.28;1601351;88;20979;-79
2022/04/23 06:36:42;;;;;;;13.48;12.07;;;;;;;7.82;79.64;95752.47;1655205;85;21085;-79
2022/04/23 06:39:08;;;;;;;13.98;11.83;;;;;;;7.89;80.67;95761.59;1650101;85;21050;-78
2022/04/23 06:41:33;;;;;;;13.38;11.80;;;;;;;7.94;80.01;95754.08;1652821;85;21126;-79
2022/04/23 06:43:59;;;;;;;11.12;9.30;;;;;;;7.99;79.20;95753.88;1654865;85;21027;-78
2022/04/23 06:46:26;;;;;;;10.05;9.05;;;;;;;8.01;78.27;95757.57;1657333;85;21385;-78
2022/04/23 06:48:52;;;;;;;10.28;9.25;;;;;;;7.99;76.72;95748.70;1650935;85;21002;-78
2022/04/23 06:51:17;;;;;;;11.15;9.00;;;;;;;7.96;76.86;95757.28;1643009;85;20994;-79
2022/04/23 06:53:43;;;;;;;12.30;9.70;;;;;;;7.95;77.29;95760.37;1647479;87;20979;-79
2022/04/23 06:56:09;;;;;;;11.80;10.60;;;;;;;8.03;77.79;95762.06;1645797;87;20983;-79
2022/04/23 06:58:35;;;;;;;10.00;8.88;;;;;;;8.18;77.68;95759.45;1652526;87;20994;-79
2022/04/23 07:01:01;;;;;;;9.43;8.40;;;;;;;8.22;76.18;95758.91;1650967;85;20971;-78
2022/04/23 07:03:27;;;;;;;9.40;8.50;;;;;;;8.19;74.57;95759.77;1648910;85;20990;-78
2022/04/23 07:05:54;;;;;;;9.08;8.08;;;;;;;8.20;74.90;95755.70;1648463;85;21065;-79
2022/04/23 07:08:20;;;;;;;8.43;7.53;;;;;;;8.17;73.68;95756.07;1643958;87;21010;-79
2022/04/23 07:10:45;;;;;;;8.95;7.95;;;;;;;8.19;73.95;95753.30;1650489;87;21465;-79
2022/04/23 07:13:14;;;;;;;9.00;8.00;;;;;;;8.31;75.30;95757.02;1644485;87;20978;-79
2022/04/23 07:15:41;;;;;;;7.58;5.95;;;;;;;8.48;75.51;95754.55;1637133;87;21058;-79
2022/04/23 07:18:07;;;;;;;6.65;5.95;;;;;;;8.64;73.29;95751.72;1645366;87;21078;-79
2022/04/23 07:20:33;;;;;;;7.03;6.33;;;;;;;8.63;69.24;95751.42;1649349;87;21065;-79
2022/04/23 07:25:43;;;;;;;6.58;5.42;;;;;;;8.62;71.94;95757.59;1636839;87;21437;-79
2022/04/23 07:28:09;;;;;;;6.22;5.62;;;;;;;8.67;69.73;95757.02;1653144;87;21026;-79
2022/04/23 07:30:35;;;;;;;5.75;5.15;;;;;;;8.68;68.77;95761.22;1654317;87;21062;-79
2022/04/23 07:33:01;;;;;;;7.55;6.83;;;;;;;8.68;69.17;95763.80;1649871;87;20974;-79
2022/04/23 07:38:16;;;;;;;6.30;5.70;;;;;;;8.73;69.04;95754.48;1644870;87;21564;-79
2022/04/23 07:40:44;;;;;;;8.00;5.60;;;;;;;8.80;67.03;95754.56;1649775;86;21057;-79
2022/04/23 07:43:12;;;;;;;5.65;5.15;;;;;;;8.87;69.06;95761.09;1646387;85;21022;-79
2022/04/23 07:45:38;;;;;;;7.53;5.92;;;;;;;8.78;67.71;95762.19;1648811;87;21337;-79
2022/04/23 07:48:05;;;;;;;6.53;5.62;;;;;;;8.79;67.79;95764.62;1647422;87;21054;-79
2022/04/23 07:50:33;;;;;;;6.17;5.45;;;;;;;8.87;67.71;95767.56;1649351;87;21041;-79
2022/04/23 07:52:58;;;;;;;5.80;5.20;;;;;;;8.74;65.09;95761.76;1640493;86;21012;-79
2022/04/23 07:55:24;;;;;;;5.78;5.17;;;;;;;8.70;67.51;95760.03;1637477;87;21021;-79
2022/04/23 07:57:50;;;;;;;5.20;4.70;;;;;;;8.85;67.66;95763.06;1652824;87;20974;-80
2022/04/23 08:00:17;;;;;;;5.95;4.55;;;;;;;8.95;65.83;95764.36;1652464;87;21287;-83
2022/04/23 08:02:42;;;;;;;5.97;5.40;;;;;;;9.04;65.41;95765.02;1647613;87;20951;-80
2022/04/23 08:05:12;;;;;;;5.25;4.58;;;;;;;9.02;64.12;95756.14;1647050;85;21451;-80
2022/04/23 08:07:39;;;;;;;5.87;5.08;;;;;;;9.01;64.67;95759.72;1644818;87;21042;-79
2022/04/23 08:10:08;;;;;;;6.47;5.75;;;;;;;9.17;65.46;95758.65;1645067;87;21014;-80
2022/04/23 08:12:35;;;;;;;5.60;5.10;;;;;;;9.20;66.07;95756.17;1637681;87;20974;-79
2022/04/23 08:15:01;;;;;;;5.45;4.65;;;;;;;9.32;66.12;95748.19;1631696;87;20992;-79
2022/04/23 08:17:27;;;;;;;6.47;5.72;;;;;;;9.48;63.98;95756.98;1638860;87;21101;-80
2022/04/23 08:19:52;;;;;;;8.18;6.62;;;;;;;9.60;64.61;95754.17;1627625;87;21386;-80
2022/04/23 08:22:18;;;;;;;7.00;6.30;;;;;;;9.73;64.86;95760.41;1627139;87;20994;-80
2022/04/23 08:24:44;;;;;;;7.03;5.85;;;;;;;9.83;62.19;95755.19;1627085;87;21441;-80
2022/04/23 08:27:09;;;;;;;6.90;5.80;;;;;;;9.84;64.21;95756.78;1621700;87;20990;-80
2022/04/23 08:32:20;;;;;;;6.58;5.97;;;;;;;10.19;65.07;95753.64;1631883;87;21010;-80
2022/04/23 08:34:46;;;;;;;7.42;6.28;;;;;;;10.27;63.70;95750.11;1634233;87;20978;-80
2022/04/23 08:37:14;;;;;;;8.15;7.35;;;;;;;10.45;64.69;95747.77;1630887;87;21077;-80
2022/04/23 08:39:42;;;;;;;8.03;7.03;;;;;;;10.51;64.47;95756.56;1631763;87;21335;-80
2022/04/23 08:42:09;;;;;;;8.38;7.50;;;;;;;10.56;62.62;95760.66;1646672;87;21121;-80
2022/04/23 08:44:37;;;;;;;7.50;6.62;;;;;;;10.46;62.95;95753.77;1626086;87;21078;-80
2022/04/23 08:47:04;;;;;;;8.88;7.28;;;;;;;10.34;63.58;95756.62;1628186;86;21001;-80
2022/04/23 08:49:34;;;;;;;7.90;7.08;;;;;;;10.31;62.97;95751.32;1641069;87;21015;-80
2022/04/23 08:52:17;;;;;;;7.65;6.85;;;;;;;10.31;62.45;95756.52;1646300;87;20966;-80
2022/04/23 08:54:43;;;;;;;7.83;7.03;;;;;;;10.34;63.95;95752.22;1643752;87;21158;-80
2022/04/23 08:57:09;;;;;;;7.92;7.03;;;;;;;10.49;64.06;95755.47;1626583;88;21098;-80
2022/04/23 08:59:35;;;;;;;7.97;7.17;;;;;;;10.82;64.85;95752.92;1626688;88;21081;-80
2022/04/23 09:02:01;;;;;;;8.35;7.55;;;;;;;10.99;63.54;95749.44;1626508;88;21022;-80
2022/04/23 09:04:28;;;;;;;8.33;7.53;;;;;;;11.10;64.12;95755.86;1633774;87;21054;-80
2022/04/23 09:06:54;;;;;;;7.28;6.58;;;;;;;11.23;62.36;95751.16;1654134;87;21094;-80
2022/04/23 09:09:21;;;;;;;8.85;8.00;;;;;;;11.32;60.73;95750.73;1654489;87;21432;-80
2022/04/23 09:11:58;;;;;;;9.30;8.38;;;;;;;11.39;62.72;95745.05;1652021;85;21061;-80
2022/04/23 09:14:33;;;;;;;9.63;8.68;;;;;;;11.14;60.64;95754.45;1653125;87;21073;-80
2022/04/23 09:25:37;;;;;;;8.05;6.33;;;;;;;11.04;61.70;95748.34;1653082;87;21419;-79
2022/04/23 09:28:18;;;;;;;9.40;8.50;;;;;;;11.19;61.30;95748.14;1652918;87;21377;-80
2022/04/23 09:30:46;;;;;;;7.58;6.87;;;;;;;11.31;60.08;95745.73;1653064;87;21027;-80
2022/04/23 09:33:12;;;;;;;7.45;6.67;;;;;;;11.15;59.56;95760.45;1627902;88;21021;-80
2022/04/23 09:35:59;;;;;;;6.67;6.08;;;;;;;11.15;60.88;95755.25;1647816;87;21373;-80
2022/04/23 09:38:26;;;;;;;5.75;5.25;;;;;;;11.20;59.68;95748.94;1654500;87;21452;-80
2022/04/23 09:40:54;;;;;;;6.45;5.85;;;;;;;11.16;55.63;95749.84;1653652;87;21006;-80
2022/04/23 09:43:29;;;;;;;5.60;5.10;;;;;;;11.04;58.26;95747.03;1653183;87;21109;-80
2022/04/23 09:46:07;;;;;;;7.10;5.70;;;;;;;11.25;59.70;95748.66;1652407;87;21038;-80
2022/04/23 09:48:34;;;;;;;7.75;6.95;;;;;;;11.50;59.64;95744.11;1653046;87;21003;-80
2022/04/23 09:51:00;;;;;;;9.28;7.80;;;;;;;11.58;57.12;95743.41;1653094;87;21463;-80
2022/04/23 09:53:27;;;;;;;6.90;6.20;;;;;;;11.42;59.01;95745.14;1653217;87;21062;-80
2022/04/23 09:55:59;;;;;;;7.78;6.97;;;;;;;11.52;56.86;95742.91;1654468;87;21440;-80
2022/04/23 09:58:22;;;;;;;5.65;4.95;;;;;;;11.67;61.14;95740.87;1654166;87;21433;-80
2022/04/23 10:00:48;;;;;;;8.33;7.53;;;;;;;11.95;58.43;95751.05;1651015;87;21145;-80
2022/04/23 10:03:14;;;;;;;7.10;6.33;;;;;;;11.94;57.82;95746.05;1648177;87;21037;-80
2022/04/23 10:05:48;;;;;;;7.47;6.67;;;;;;;11.88;56.56;95748.19;1647850;87;21046;-80
2022/04/23 10:08:17;;;;;;;7.22;6.50;;;;;;;11.87;57.95;95751.26;1647914;87;21457;-80
2022/04/23 10:10:47;;;;;;;7.35;6.65;;;;;;;11.92;57.01;95747.56;1647893;87;21031;-80
2022/04/23 10:13:14;;;;;;;6.05;5.45;;;;;;;12.01;55.68;95754.13;1649786;85;21093;-80
2022/04/23 10:15:40;;;;;;;6.78;5.95;;;;;;;11.98;56.73;95750.63;1647517;85;21063;-80
2022/04/23 10:18:10;;;;;;;7.97;6.22;;;;;;;12.07;56.64;95755.13;1647734;87;21030;-80
2022/04/23 10:20:40;;;;;;;6.30;5.70;;;;;;;12.13;57.56;95755.59;1647763;87;21073;-80
2022/04/23 10:23:13;;;;;;;7.12;6.25;;;;;;;12.28;56.35;95760.04;1647686;86;21010;-80
2022/04/23 10:25:51;;;;;;;6.35;5.70;;;;;;;12.36;57.35;95759.50;1647158;86;21449;-80
2022/04/23 10:28:17;;;;;;;7.50;6.70;;;;;;;12.32;56.19;95767.73;1647919;86;21153;-80
2022/04/23 10:30:46;;;;;;;5.72;5.12;;;;;;;11.96;55.72;95770.08;1647931;87;21450;-80
2022/04/23 10:33:28;;;;;;;7.35;6.55;;;;;;;11.90;53.29;95773.51;1647808;87;21155;-80
2022/04/23 10:36:08;;;;;;;;;;;;;;;11.98;57.84;95771.97;1650384;87;21046;-79
2022/04/23 10:38:33;;;;;;;7.15;6.22;;;;;;;11.87;55.50;95765.58;1645166;86;20107;-79
2022/04/23 10:40:59;;;;;;;7.33;6.62;;;;;;;12.01;56.57;95765.84;1647831;87;20995;-80
2022/04/23 10:43:25;;;;;;;5.67;5.17;;;;;;;12.32;56.11;95769.53;1647840;87;21027;-80
2022/04/23 10:45:51;;;;;;;8.13;6.85;;;;;;;12.57;54.48;95763.91;1647808;87;21079;-80
2022/04/23 10:48:23;;;;;;;6.37;5.78;;;;;;;12.40;52.89;95766.70;1648001;87;21005;-80
2022/04/23 10:51:15;;;;;;;7.40;6.70;;;;;;;12.15;54.09;95767.11;1647941;87;21155;-80
2022/04/23 10:53:46;;;;;;;6.85;6.25;;;;;;;12.03;55.02;95761.73;1646781;85;21011;-79
2022/04/23 10:56:15;;;;;;;7.83;6.30;;;;;;;11.99;55.67;95765.75;1641855;87;20994;-80
2022/04/23 10:58:41;;;;;;;6.55;5.50;;;;;;;12.18;55.54;95759.67;1641151;86;21170;-78
2022/04/23 11:01:30;;;;;;;7.15;6.42;;;;;;;12.41;55.10;95757.88;1646823;87;21137;-78
2022/04/23 11:04:00;;;;;;;6.90;5.70;;;;;;;12.48;55.04;95757.84;1650763;86;21100;-79
2022/04/23 11:12:24;;;;;;;6.87;6.28;;;;;;;12.59;52.92;95759.29;1653559;87;21784;-78
2022/04/23 11:14:56;;;;;;;6.33;5.72;;;;;;;12.51;53.25;95756.91;1654269;87;21022;-79
2022/04/23 11:17:32;;;;;;;;;;;;;;;12.70;53.40;95760.45;1655110;85;21373;-79
2022/04/23 11:19:59;;;;;;;6.37;5.78;;;;;;;12.86;50.92;95750.02;1645262;87;21083;-79
2022/04/23 11:22:25;;;;;;;7.30;5.80;;;;;;;12.88;53.23;95758.42;1653915;87;21103;-79
2022/04/23 11:24:54;;;;;;;7.05;6.35;;;;;;;12.99;49.90;95767.36;1652220;87;21124;-78
2022/04/23 11:27:29;;;;;;;7.08;6.37;;;;;;;12.85;49.11;95763.56;1654261;87;21018;-79
2022/04/23 11:29:55;;;;;;;7.58;6.67;;;;;;;12.80;52.64;95757.36;1654233;87;21110;-78
2022/04/23 11:32:26;;;;;;;7.65;6.92;;;;;;;13.00;52.50;95755.91;1654290;87;21106;-78
2022/04/23 11:35:00;;;;;;;7.07;6.23;;;;;;;13.11;51.93;95750.02;1652718;86;21063;-79
2022/04/23 11:37:38;;;;;;;6.78;5.50;;;;;;;13.24;51.80;95755.68;1654107;87;21038;-78
2022/04/23 11:40:13;;;;;;;7.28;6.58;;;;;;;13.17;51.14;95749.95;1652899;85;20974;-78
2022/04/23 11:42:43;;;;;;;8.18;7.25;;;;;;;12.93;51.37;95750.25;1652005;87;21138;-78
2022/04/23 11:45:12;;;;;;;11.57;10.03;;;;;;;13.06;52.38;95744.66;1647580;87;20994;-78
2022/04/23 11:47:38;;;;;;;7.83;6.87;;;;;;;13.30;53.51;95748.30;1653113;87;21017;-78
2022/04/23 11:50:10;;;;;;;7.78;6.53;;;;;;;13.25;51.77;95748.14;1652247;87;21018;-78
2022/04/23 11:52:37;;;;;;;7.33;6.62;;;;;;;13.21;52.94;95744.66;1651914;87;21063;-78